createdAt,value
2022-12-31T00:02:45.362Z,80.72
2022-12-31T00:06:52.328Z,80.78
2022-12-31T00:10:59.019Z,80.85
2022-12-31T00:15:06.463Z,81.17
2022-12-31T00:19:13.788Z,81.37
2022-12-31T00:23:20.522Z,81.55
2022-12-31T00:27:27.258Z,81.71
2022-12-31T00:31:37.255Z,82.08
2022-12-31T00:35:43.984Z,82.20
2022-12-31T00:39:50.660Z,82.21
2022-12-31T00:43:57.669Z,82.12
2022-12-31T00:48:04.445Z,82.42
2022-12-31T00:52:13.795Z,82.42
2022-12-31T00:56:22.737Z,82.31
2022-12-31T01:00:29.457Z,82.40
2022-12-31T01:04:36.299Z,82.32
2022-12-31T01:08:43.155Z,82.15
2022-12-31T01:12:49.852Z,81.92
2022-12-31T01:16:56.788Z,81.76
2022-12-31T01:21:05.699Z,81.69
2022-12-31T01:25:12.656Z,82.05
2022-12-31T01:29:19.616Z,81.87
2022-12-31T01:33:26.369Z,81.79
2022-12-31T01:37:33.111Z,81.67
2022-12-31T01:41:41.864Z,81.59
2022-12-31T01:45:52.065Z,81.68
2022-12-31T01:50:04.234Z,81.67
2022-12-31T01:54:14.092Z,81.63
2022-12-31T01:58:24.256Z,81.54
2022-12-31T02:02:31.179Z,81.58
2022-12-31T02:06:42.673Z,81.50
2022-12-31T02:10:49.324Z,80.92
2022-12-31T02:14:57.510Z,80.73
2022-12-31T02:19:19.734Z,80.43
2022-12-31T02:23:48.391Z,80.19
2022-12-31T02:28:04.254Z,80.12
2022-12-31T02:32:18.010Z,79.61
2022-12-31T02:36:28.962Z,79.49
2022-12-31T02:40:36.794Z,79.22
2022-12-31T02:44:44.429Z,78.85
2022-12-31T02:48:57.561Z,78.33
2022-12-31T02:53:19.655Z,77.99
2022-12-31T02:57:32.313Z,77.78
2022-12-31T03:02:01.979Z,77.42
2022-12-31T03:06:11.759Z,77.27
2022-12-31T03:10:18.640Z,77.10
2022-12-31T03:14:25.380Z,76.76
2022-12-31T03:18:57.991Z,76.56
2022-12-31T03:23:14.005Z,76.36
2022-12-31T03:27:21.019Z,76.16
2022-12-31T03:31:27.687Z,76.30
2022-12-31T03:35:36.268Z,76.14
2022-12-31T03:39:43.002Z,75.83
2022-12-31T03:43:49.685Z,75.41
2022-12-31T03:47:56.414Z,75.76
2022-12-31T03:52:03.708Z,75.40
2022-12-31T03:56:10.582Z,75.51
2022-12-31T04:00:21.139Z,75.03
2022-12-31T04:04:27.939Z,75.01
2022-12-31T04:08:34.637Z,74.76
2022-12-31T04:12:41.789Z,74.78
2022-12-31T04:16:48.793Z,74.38
2022-12-31T04:20:55.526Z,74.20
2022-12-31T04:25:02.284Z,74.47
2022-12-31T04:29:09.354Z,74.19
2022-12-31T04:33:16.034Z,74.07
2022-12-31T04:37:22.712Z,73.53
2022-12-31T04:41:29.383Z,74.17
2022-12-31T04:45:36.082Z,73.93
2022-12-31T04:49:42.838Z,73.69
2022-12-31T04:53:50.057Z,73.54
2022-12-31T04:57:56.796Z,73.78
2022-12-31T05:02:03.646Z,73.62
2022-12-31T05:06:12.886Z,73.61
2022-12-31T05:10:19.786Z,73.43
2022-12-31T05:14:26.468Z,73.43
2022-12-31T05:18:33.565Z,73.33
2022-12-31T05:22:40.258Z,73.37
2022-12-31T05:26:46.985Z,73.40
2022-12-31T05:30:54.204Z,73.28
2022-12-31T05:35:01.529Z,73.13
2022-12-31T05:39:08.355Z,72.83
2022-12-31T05:43:15.039Z,72.81
2022-12-31T05:47:21.739Z,72.56
2022-12-31T05:51:28.480Z,72.65
2022-12-31T05:55:35.176Z,72.86
2022-12-31T05:59:42.136Z,72.64
2022-12-31T06:03:48.841Z,72.58
2022-12-31T06:07:55.595Z,72.66
2022-12-31T06:12:02.265Z,72.47
2022-12-31T06:16:11.956Z,72.52
2022-12-31T06:20:19.047Z,72.56
2022-12-31T06:24:25.798Z,72.40
2022-12-31T06:28:32.498Z,72.43
2022-12-31T06:32:39.448Z,72.63
2022-12-31T06:36:46.150Z,72.70
2022-12-31T06:40:52.841Z,72.84
2022-12-31T06:44:59.560Z,73.00
2022-12-31T06:49:06.218Z,72.99
2022-12-31T06:53:12.919Z,72.97
2022-12-31T06:57:20.471Z,73.31
2022-12-31T07:01:54.068Z,73.32
2022-12-31T07:06:10.223Z,73.47
2022-12-31T07:10:29.917Z,73.29
2022-12-31T07:14:42.976Z,73.28
2022-12-31T07:18:57.523Z,73.29
2022-12-31T07:23:05.013Z,73.30
2022-12-31T07:27:29.708Z,73.06
2022-12-31T07:31:51.474Z,72.84
2022-12-31T07:36:10.263Z,73.01
2022-12-31T07:40:23.969Z,72.97
2022-12-31T07:44:42.149Z,72.76
2022-12-31T07:48:49.558Z,72.53
2022-12-31T07:52:57.635Z,72.35
2022-12-31T07:57:04.470Z,72.29
2022-12-31T08:01:14.404Z,72.16
2022-12-31T08:05:28.913Z,72.03
2022-12-31T08:09:46.216Z,71.77
2022-12-31T08:13:56.198Z,71.51
2022-12-31T08:18:03.669Z,71.26
2022-12-31T08:22:29.729Z,71.23
2022-12-31T08:26:48.140Z,71.03
2022-12-31T08:31:05.503Z,70.96
2022-12-31T08:35:25.169Z,70.73
2022-12-31T08:39:44.365Z,70.67
2022-12-31T08:44:00.038Z,70.58
2022-12-31T08:48:15.333Z,70.52
2022-12-31T08:52:25.303Z,70.27
2022-12-31T08:56:37.263Z,69.95
2022-12-31T09:00:44.536Z,69.54
2022-12-31T09:05:01.195Z,69.26
2022-12-31T09:09:21.763Z,69.02
2022-12-31T09:13:38.953Z,68.69
2022-12-31T09:17:50.396Z,68.46
2022-12-31T09:21:56.389Z,68.28
2022-12-31T09:26:17.599Z,68.02
2022-12-31T09:30:24.923Z,68.09
2022-12-31T09:34:38.415Z,67.95
2022-12-31T09:38:53.645Z,67.55
2022-12-31T09:43:58.972Z,67.50
2022-12-31T09:48:27.186Z,67.78
2022-12-31T09:52:44.861Z,67.71
2022-12-31T09:57:07.889Z,67.82
2022-12-31T10:01:42.582Z,67.55
2022-12-31T10:06:20.444Z,67.15
2022-12-31T10:10:35.380Z,67.01
2022-12-31T10:14:56.767Z,66.85
2022-12-31T10:19:29.312Z,66.83
2022-12-31T10:24:01.252Z,66.51
2022-12-31T10:28:29.086Z,66.63
2022-12-31T10:32:43.780Z,66.67
2022-12-31T10:37:04.200Z,66.42
2022-12-31T10:41:52.842Z,66.56
2022-12-31T10:46:37.995Z,66.06
2022-12-31T10:51:27.965Z,65.73
2022-12-31T10:55:57.605Z,65.32
2022-12-31T11:00:14.967Z,64.97
2022-12-31T11:04:49.444Z,64.88
2022-12-31T11:09:31.267Z,64.52
2022-12-31T11:14:08.334Z,64.68
2022-12-31T11:18:23.530Z,64.64
2022-12-31T11:22:43.101Z,64.59
2022-12-31T11:27:08.110Z,64.27
2022-12-31T11:31:33.851Z,64.38
2022-12-31T11:35:57.742Z,64.17
2022-12-31T11:40:22.277Z,64.40
2022-12-31T11:44:46.323Z,64.21
2022-12-31T11:49:06.683Z,64.31
2022-12-31T11:53:46.446Z,64.22
2022-12-31T11:57:54.287Z,64.03
2022-12-31T12:02:13.188Z,64.05
2022-12-31T12:06:24.757Z,63.97
2022-12-31T12:10:36.596Z,63.88
2022-12-31T12:14:45.126Z,63.89
2022-12-31T12:19:03.283Z,63.77
2022-12-31T12:23:24.376Z,64.11
2022-12-31T12:27:33.094Z,64.09
2022-12-31T12:31:40.189Z,64.22
2022-12-31T12:35:47.182Z,64.66
2022-12-31T12:40:01.029Z,66.09
2022-12-31T12:44:15.265Z,67.59
2022-12-31T12:48:31.062Z,68.27
2022-12-31T12:53:09.340Z,68.59
2022-12-31T12:57:22.074Z,68.52
2022-12-31T13:01:42.511Z,68.48
2022-12-31T13:05:59.080Z,68.67
2022-12-31T13:10:24.402Z,68.79
2022-12-31T13:14:38.877Z,68.74
2022-12-31T13:18:56.079Z,68.80
2022-12-31T13:23:14.105Z,68.94
2022-12-31T13:27:28.470Z,69.12
2022-12-31T13:31:38.740Z,68.86
2022-12-31T13:35:49.099Z,68.87
2022-12-31T13:40:02.502Z,68.97
2022-12-31T13:44:26.158Z,68.96
2022-12-31T13:48:35.787Z,68.81
2022-12-31T13:52:47.678Z,68.95
2022-12-31T13:56:56.254Z,68.93
2022-12-31T14:01:10.569Z,68.86
2022-12-31T14:05:25.764Z,68.54
2022-12-31T14:09:35.032Z,68.63
2022-12-31T14:13:56.842Z,68.68
2022-12-31T14:18:10.931Z,68.72
2022-12-31T14:22:25.554Z,68.81
2022-12-31T14:26:35.238Z,68.82
2022-12-31T14:30:44.386Z,68.95
2022-12-31T14:34:59.677Z,68.78
2022-12-31T14:39:27.226Z,68.60
2022-12-31T14:43:45.198Z,68.52
2022-12-31T14:47:57.001Z,68.71
2022-12-31T14:52:20.683Z,68.74
2022-12-31T14:56:34.064Z,68.64
2022-12-31T15:00:52.458Z,68.56
2022-12-31T15:05:17.238Z,68.50
2022-12-31T15:09:52.305Z,68.63
2022-12-31T15:14:22.345Z,68.64
2022-12-31T15:18:39.927Z,68.64
2022-12-31T15:22:48.895Z,68.49
2022-12-31T15:26:57.751Z,68.59
2022-12-31T15:31:20.035Z,68.43
2022-12-31T15:35:33.121Z,68.36
2022-12-31T15:39:44.776Z,68.27
2022-12-31T15:43:57.238Z,68.54
2022-12-31T15:48:10.058Z,68.39
2022-12-31T15:52:21.626Z,68.37
2022-12-31T15:56:36.095Z,68.43
2022-12-31T16:00:58.541Z,68.27
2022-12-31T16:05:05.811Z,68.14
2022-12-31T16:09:23.522Z,68.01
2022-12-31T16:13:31.723Z,67.96
2022-12-31T16:17:39.831Z,68.12
2022-12-31T16:21:49.585Z,68.21
2022-12-31T16:26:00.946Z,68.12
2022-12-31T16:30:20.270Z,68.22
2022-12-31T16:34:28.398Z,68.29
2022-12-31T16:38:36.812Z,68.20
2022-12-31T16:42:44.600Z,68.59
2022-12-31T16:46:52.525Z,69.09
2022-12-31T16:50:59.622Z,69.23
2022-12-31T16:55:10.892Z,69.40
2022-12-31T16:59:24.432Z,69.60
2022-12-31T17:03:31.846Z,69.76
2022-12-31T17:07:43.563Z,70.09
2022-12-31T17:11:54.128Z,69.84
2022-12-31T17:16:02.365Z,70.26
2022-12-31T17:20:22.333Z,70.42
2022-12-31T17:24:29.325Z,70.71
2022-12-31T17:28:45.075Z,70.68
2022-12-31T17:32:53.200Z,70.74
2022-12-31T17:37:18.430Z,70.89
2022-12-31T17:41:28.104Z,70.89
2022-12-31T17:45:39.354Z,71.18
2022-12-31T17:49:46.674Z,70.88
2022-12-31T17:53:53.451Z,70.61
2022-12-31T17:58:03.825Z,70.38
2022-12-31T18:02:14.298Z,70.27
2022-12-31T18:06:21.064Z,70.46
2022-12-31T18:10:29.567Z,70.21
2022-12-31T18:14:36.457Z,70.13
2022-12-31T18:18:45.411Z,69.86
2022-12-31T18:22:52.817Z,69.65
2022-12-31T18:26:59.494Z,69.53
2022-12-31T18:31:06.334Z,69.35
2022-12-31T18:35:40.683Z,69.19
2022-12-31T18:39:45.171Z,69.08
2022-12-31T18:43:52.125Z,69.01
2022-12-31T18:47:58.816Z,68.79
2022-12-31T18:52:05.606Z,68.70
2022-12-31T18:56:15.297Z,68.75
2022-12-31T19:00:22.226Z,68.40
2022-12-31T19:04:28.919Z,68.39
2022-12-31T19:08:35.903Z,68.32
2022-12-31T19:12:42.659Z,68.07
2022-12-31T19:16:50.667Z,68.10
2022-12-31T19:20:57.395Z,68.05
2022-12-31T19:25:04.185Z,68.00
2022-12-31T19:29:15.932Z,68.34
2022-12-31T19:33:22.795Z,68.34
2022-12-31T19:37:29.546Z,68.66
2022-12-31T19:41:36.356Z,68.93
2022-12-31T19:45:43.847Z,68.78
2022-12-31T19:49:51.030Z,68.83
2022-12-31T19:53:57.845Z,69.01
2022-12-31T19:58:04.524Z,69.26
2022-12-31T20:02:12.416Z,69.21
2022-12-31T20:06:20.195Z,69.18
2022-12-31T20:10:26.924Z,69.04
2022-12-31T20:14:33.722Z,69.16
2022-12-31T20:18:41.712Z,69.08
2022-12-31T20:22:48.397Z,69.32
2022-12-31T20:26:55.160Z,69.29
2022-12-31T20:31:05.204Z,69.20
2022-12-31T20:35:11.944Z,69.09
2022-12-31T20:39:18.711Z,69.44
2022-12-31T20:43:25.408Z,69.47
2022-12-31T20:47:32.088Z,69.51
2022-12-31T20:51:38.938Z,69.44
2022-12-31T20:55:45.612Z,69.36
2022-12-31T20:59:52.324Z,69.35
2022-12-31T21:04:07.344Z,69.71
2022-12-31T21:08:14.194Z,69.52
2022-12-31T21:12:38.518Z,69.68
2022-12-31T21:16:45.344Z,69.39
2022-12-31T21:20:53.690Z,69.29
2022-12-31T21:25:01.061Z,69.24
2022-12-31T21:29:07.762Z,69.41
2022-12-31T21:33:14.505Z,69.36
2022-12-31T21:37:21.135Z,69.59
2022-12-31T21:41:45.316Z,69.38
2022-12-31T21:46:02.613Z,69.38
2022-12-31T21:50:11.145Z,69.40
2022-12-31T21:54:37.880Z,69.53
2022-12-31T21:58:46.044Z,69.77
2022-12-31T22:03:10.498Z,69.99
2022-12-31T22:07:17.243Z,69.95
2022-12-31T22:11:25.658Z,69.96
2022-12-31T22:15:32.415Z,69.98
2022-12-31T22:19:48.723Z,70.23
2022-12-31T22:24:06.591Z,70.36
2022-12-31T22:28:37.574Z,70.25
2022-12-31T22:32:39.918Z,70.46
2022-12-31T22:36:46.609Z,70.43
2022-12-31T22:40:53.333Z,70.60
2022-12-31T22:45:00.000Z,70.69
2022-12-31T22:49:06.936Z,70.95
2022-12-31T22:53:13.573Z,70.90
2022-12-31T22:57:20.566Z,71.25
2022-12-31T23:01:27.682Z,71.03
2022-12-31T23:05:35.004Z,70.93
2022-12-31T23:09:59.177Z,70.81
2022-12-31T23:14:25.052Z,70.77
2022-12-31T23:18:49.235Z,70.68
2022-12-31T23:23:09.683Z,70.90
2022-12-31T23:27:16.427Z,70.83
2022-12-31T23:31:25.837Z,70.94
2022-12-31T23:35:32.638Z,70.72
2022-12-31T23:39:39.319Z,70.93
2022-12-31T23:43:46.517Z,71.20
2022-12-31T23:47:53.203Z,70.86
2022-12-31T23:51:59.896Z,70.81
2022-12-31T23:56:15.005Z,70.79
